Time;durP1;ratioP1;P1;durP2;ratioP2;P2;SDS_P1;SDS_P2;PMS_P1;PMS_P2;Temp;Humidity;BMP_temperature;BMP_pressure;BME280_temperature;BME280_humidity;BME280_pressure;Samples;Min_cycle;Max_cycle;Signal;HPM_P1;HPM_P2
2022/06/06 00:01:09;;;;;;;21.42;9.52;;;;;;;;;;5012047;28;95727;-73
2022/06/06 00:03:36;;;;;;;20.73;9.73;;;;;;;;;;5012192;28;96974;-73
2022/06/06 00:06:07;;;;;;;16.85;8.82;;;;;;;;;;5012266;28;97379;-73
2022/06/06 00:08:33;;;;;;;17.25;8.60;;;;;;;;;;4990924;28;96096;-74
2022/06/06 00:11:00;;;;;;;20.73;8.27;;;;;;;;;;4991793;28;96840;-73
2022/06/06 00:13:27;;;;;;;17.27;8.48;;;;;;;;;;4990054;28;97322;-73
2022/06/06 00:15:53;;;;;;;20.80;8.88;;;;;;;;;;4995153;28;95493;-73
2022/06/06 00:18:20;;;;;;;16.17;8.23;;;;;;;;;;4991593;28;97406;-74
2022/06/06 00:20:46;;;;;;;15.90;7.45;;;;;;;;;;4988157;28;97234;-73
2022/06/06 00:23:12;;;;;;;21.73;8.02;;;;;;;;;;4992662;28;95722;-73
2022/06/06 00:25:39;;;;;;;19.80;8.10;;;;;;;;;;4991809;28;97419;-73
2022/06/06 00:28:05;;;;;;;17.65;7.75;;;;;;;;;;4991242;28;95224;-73
2022/06/06 00:30:32;;;;;;;14.35;7.05;;;;;;;;;;4990560;28;97100;-74
2022/06/06 00:35:43;;;;;;;18.75;7.20;;;;;;;;;;4973592;28;95412;-74
2022/06/06 00:38:09;;;;;;;12.68;6.60;;;;;;;;;;4995184;28;97098;-73
2022/06/06 00:40:36;;;;;;;17.73;8.32;;;;;;;;;;4994701;28;95386;-73
2022/06/06 00:43:03;;;;;;;16.33;7.05;;;;;;;;;;4993157;28;96834;-73
2022/06/06 00:45:31;;;;;;;15.85;7.88;;;;;;;;;;4994108;28;97383;-73
2022/06/06 00:48:10;;;;;;;16.40;8.30;;;;;;;;;;4995227;28;95499;-73
2022/06/06 00:50:40;;;;;;;16.20;8.50;;;;;;;;;;5004003;28;96884;-73
2022/06/06 00:53:07;;;;;;;19.00;8.52;;;;;;;;;;4974740;28;97685;-73
2022/06/06 00:55:36;;;;;;;16.10;7.40;;;;;;;;;;4990416;28;95266;-73
2022/06/06 00:58:07;;;;;;;17.35;8.15;;;;;;;;;;4994961;28;96853;-73
2022/06/06 01:00:33;;;;;;;16.13;7.25;;;;;;;;;;4997586;28;97905;-73
2022/06/06 01:03:02;;;;;;;13.18;6.72;;;;;;;;;;4994232;28;96469;-73
2022/06/06 01:05:28;;;;;;;19.85;7.75;;;;;;;;;;4993615;28;97330;-73
2022/06/06 01:07:55;;;;;;;14.18;7.70;;;;;;;;;;4995006;28;95454;-73
2022/06/06 01:10:22;;;;;;;15.57;7.03;;;;;;;;;;4991351;28;96510;-73
2022/06/06 01:12:49;;;;;;;13.13;6.78;;;;;;;;;;4990679;28;97600;-73
2022/06/06 01:15:17;;;;;;;17.85;8.00;;;;;;;;;;4997617;28;95340;-73
2022/06/06 01:17:44;;;;;;;13.65;6.43;;;;;;;;;;4994647;28;96516;-73
2022/06/06 01:20:27;;;;;;;14.70;6.82;;;;;;;;;;4994993;28;97784;-73
2022/06/06 01:23:12;;;;;;;15.95;7.07;;;;;;;;;;4998191;28;95293;-73
2022/06/06 01:25:50;;;;;;;15.23;7.88;;;;;;;;;;4993257;28;96739;-73
2022/06/06 01:28:36;;;;;;;20.42;8.13;;;;;;;;;;4993642;28;95344;-73
2022/06/06 01:31:05;;;;;;;17.55;7.88;;;;;;;;;;5000186;28;96814;-73
2022/06/06 01:33:46;;;;;;;16.95;9.05;;;;;;;;;;4992655;28;97519;-74
2022/06/06 01:36:12;;;;;;;14.52;8.05;;;;;;;;;;4994481;28;95245;-73
2022/06/06 01:38:40;;;;;;;17.80;7.13;;;;;;;;;;4992363;28;96748;-73
2022/06/06 01:41:08;;;;;;;18.15;7.20;;;;;;;;;;4993874;28;97270;-73
2022/06/06 01:43:46;;;;;;;19.30;7.25;;;;;;;;;;4992935;28;96610;-73
2022/06/06 01:46:18;;;;;;;15.18;6.78;;;;;;;;;;4994603;28;97109;-73
2022/06/06 01:48:45;;;;;;;15.15;7.43;;;;;;;;;;4994403;28;95783;-73
2022/06/06 01:51:19;;;;;;;14.48;6.45;;;;;;;;;;4993899;28;96630;-73
2022/06/06 01:53:46;;;;;;;19.00;6.90;;;;;;;;;;4991886;28;97674;-73
2022/06/06 01:56:19;;;;;;;17.25;7.03;;;;;;;;;;4994158;28;95357;-73
2022/06/06 01:58:45;;;;;;;20.70;7.38;;;;;;;;;;4994333;28;96749;-73
2022/06/06 02:01:12;;;;;;;15.63;6.13;;;;;;;;;;4991456;28;97395;-73
2022/06/06 02:03:38;;;;;;;13.98;6.68;;;;;;;;;;4993856;28;95207;-73
2022/06/06 02:06:05;;;;;;;14.30;6.45;;;;;;;;;;4993751;28;96835;-73
2022/06/06 02:08:32;;;;;;;14.07;5.93;;;;;;;;;;4996537;28;97589;-73
2022/06/06 02:10:59;;;;;;;12.75;6.18;;;;;;;;;;4994258;28;96724;-73
2022/06/06 02:13:25;;;;;;;13.18;6.35;;;;;;;;;;4991943;28;97968;-73
2022/06/06 02:15:52;;;;;;;13.80;5.85;;;;;;;;;;4993930;28;95205;-73
2022/06/06 02:18:18;;;;;;;15.85;6.25;;;;;;;;;;4993577;28;97291;-73
2022/06/06 02:20:45;;;;;;;11.85;5.18;;;;;;;;;;4994763;28;97334;-73
2022/06/06 02:23:12;;;;;;;12.30;5.15;;;;;;;;;;4993605;28;95227;-73
2022/06/06 02:25:39;;;;;;;12.02;6.13;;;;;;;;;;4992438;28;95663;-73
2022/06/06 02:28:05;;;;;;;14.50;5.40;;;;;;;;;;4994959;28;96881;-73
2022/06/06 02:30:33;;;;;;;12.10;5.80;;;;;;;;;;4993194;28;96730;-73
2022/06/06 02:33:00;;;;;;;12.30;5.55;;;;;;;;;;4993446;28;97536;-73
2022/06/06 02:35:28;;;;;;;15.10;5.85;;;;;;;;;;4993143;28;95230;-73
2022/06/06 02:37:56;;;;;;;14.93;6.00;;;;;;;;;;4993422;28;96734;-73
2022/06/06 02:40:23;;;;;;;12.55;6.32;;;;;;;;;;5004888;28;97503;-73
2022/06/06 02:42:50;;;;;;;19.95;6.95;;;;;;;;;;4993931;28;95479;-73
2022/06/06 02:45:17;;;;;;;20.75;7.43;;;;;;;;;;4992508;28;96753;-73
2022/06/06 02:47:46;;;;;;;16.60;6.40;;;;;;;;;;4991640;28;96889;-73
2022/06/06 02:50:14;;;;;;;17.42;7.03;;;;;;;;;;4994681;28;95374;-73
2022/06/06 02:52:41;;;;;;;15.98;7.80;;;;;;;;;;4992693;28;97667;-73
2022/06/06 02:55:10;;;;;;;17.17;7.72;;;;;;;;;;4993079;28;95326;-73
2022/06/06 02:57:41;;;;;;;18.45;7.93;;;;;;;;;;4992534;28;97101;-72
2022/06/06 03:00:12;;;;;;;14.40;7.47;;;;;;;;;;5000257;28;96066;-73
2022/06/06 03:02:39;;;;;;;16.50;6.97;;;;;;;;;;5001883;28;95793;-72
2022/06/06 03:05:07;;;;;;;16.80;8.40;;;;;;;;;;4992146;28;96886;-73
2022/06/06 20:08:22;;;;;;;4.18;2.42;;;;;;;;;;5123469;27;95308;-74
2022/06/06 20:10:49;;;;;;;7.35;3.17;;;;;;;;;;5093847;27;97247;-74
2022/06/06 20:13:25;;;;;;;6.25;3.10;;;;;;;;;;5097103;27;96405;-73
2022/06/06 20:15:52;;;;;;;6.13;3.20;;;;;;;;;;5110149;27;97189;-74
2022/06/06 20:18:23;;;;;;;5.30;3.55;;;;;;;;;;5110417;27;97400;-73
2022/06/06 20:20:49;;;;;;;4.57;2.95;;;;;;;;;;5104466;27;96786;-74
2022/06/06 20:23:20;;;;;;;7.82;3.08;;;;;;;;;;5089556;27;96740;-74
2022/06/06 20:25:49;;;;;;;4.93;2.65;;;;;;;;;;5096529;27;97346;-74
2022/06/06 20:28:20;;;;;;;4.25;2.25;;;;;;;;;;5093124;27;95153;-74
2022/06/06 20:33:53;;;;;;;4.63;2.22;;;;;;;;;;5109182;27;95294;-75
2022/06/06 20:36:23;;;;;;;6.57;2.25;;;;;;;;;;5110751;27;96910;-74
2022/06/06 20:38:52;;;;;;;3.95;2.20;;;;;;;;;;5095586;27;98722;-74
2022/06/06 20:41:20;;;;;;;3.40;2.40;;;;;;;;;;5103744;27;96042;-73
2022/06/06 20:43:47;;;;;;;4.93;2.70;;;;;;;;;;5105767;27;96796;-73
2022/06/06 20:46:14;;;;;;;5.88;2.58;;;;;;;;;;5097524;27;97584;-74
2022/06/06 20:48:40;;;;;;;3.75;2.15;;;;;;;;;;5098041;27;95416;-73
2022/06/06 20:51:25;;;;;;;3.30;1.88;;;;;;;;;;5099131;27;97180;-73
2022/06/06 20:53:59;;;;;;;3.45;2.10;;;;;;;;;;5106750;27;95319;-73
2022/06/06 20:56:33;;;;;;;4.03;2.55;;;;;;;;;;5095858;27;97014;-73
2022/06/06 20:59:00;;;;;;;4.35;2.28;;;;;;;;;;5107221;27;97410;-73
2022/06/06 21:01:28;;;;;;;5.13;2.63;;;;;;;;;;5108156;27;95349;-73
2022/06/06 21:03:54;;;;;;;3.35;2.22;;;;;;;;;;5108873;27;96821;-74
2022/06/06 21:06:22;;;;;;;3.95;2.20;;;;;;;;;;5106583;27;96330;-74
2022/06/06 21:08:58;;;;;;;4.88;2.58;;;;;;;;;;5105346;27;95913;-74
2022/06/06 21:11:26;;;;;;;3.85;2.28;;;;;;;;;;5109212;27;96794;-73
2022/06/06 21:13:53;;;;;;;3.58;2.13;;;;;;;;;;5112384;27;97303;-74
2022/06/06 21:16:19;;;;;;;4.55;2.35;;;;;;;;;;5105590;27;96688;-72
2022/06/06 21:18:46;;;;;;;3.40;2.20;;;;;;;;;;5092016;27;97495;-72
2022/06/06 21:21:14;;;;;;;3.10;1.90;;;;;;;;;;5082743;27;95342;-74
2022/06/06 21:23:41;;;;;;;3.17;2.00;;;;;;;;;;5079416;27;96441;-74
2022/06/06 21:26:10;;;;;;;3.45;2.00;;;;;;;;;;5079170;27;97379;-74
2022/06/06 21:28:36;;;;;;;4.03;2.05;;;;;;;;;;5079947;27;95353;-73
2022/06/06 21:31:02;;;;;;;3.22;1.83;;;;;;;;;;5093480;27;96002;-73
2022/06/06 21:33:29;;;;;;;2.30;1.63;;;;;;;;;;5094469;27;97285;-74
2022/06/06 21:35:55;;;;;;;5.15;1.70;;;;;;;;;;5087551;27;95841;-74
2022/06/06 21:38:22;;;;;;;2.90;1.77;;;;;;;;;;5080875;27;97077;-74
2022/06/06 21:40:48;;;;;;;2.47;1.70;;;;;;;;;;5091988;27;95228;-73
2022/06/06 21:43:14;;;;;;;2.33;1.73;;;;;;;;;;5085902;27;97020;-73
2022/06/06 21:45:41;;;;;;;2.58;1.60;;;;;;;;;;5086613;27;97912;-73
2022/06/06 21:48:07;;;;;;;3.65;1.67;;;;;;;;;;5096006;27;95280;-73
2022/06/06 21:51:35;;;;;;;3.47;1.73;;;;;;;;;;5093015;27;96718;-73
2022/06/06 21:53:20;;;;;;;3.10;1.75;;;;;;;;;;5089831;27;97277;-73
2022/06/06 21:55:53;;;;;;;2.88;1.95;;;;;;;;;;5084654;27;95175;-73
2022/06/06 21:58:21;;;;;;;3.13;1.90;;;;;;;;;;5099436;27;96818;-73
2022/06/06 22:00:48;;;;;;;3.80;2.08;;;;;;;;;;5095941;27;95402;-73
2022/06/06 22:03:20;;;;;;;3.58;1.88;;;;;;;;;;5095890;27;96674;-73
2022/06/06 22:05:46;;;;;;;3.15;1.85;;;;;;;;;;5094433;27;97407;-73
2022/06/06 22:08:12;;;;;;;7.15;2.10;;;;;;;;;;5096386;27;95292;-73
2022/06/06 22:10:39;;;;;;;2.63;1.98;;;;;;;;;;5094143;27;96769;-73
2022/06/06 22:13:06;;;;;;;3.78;2.08;;;;;;;;;;5096065;27;97320;-73
2022/06/06 22:15:33;;;;;;;3.42;2.10;;;;;;;;;;5094897;27;95326;-73
2022/06/06 22:18:00;;;;;;;3.35;2.10;;;;;;;;;;5096284;27;96834;-73
2022/06/06 22:20:26;;;;;;;2.97;2.00;;;;;;;;;;5093566;27;95384;-73
2022/06/06 22:22:53;;;;;;;7.00;2.30;;;;;;;;;;5095598;27;95711;-73
2022/06/06 22:25:19;;;;;;;3.17;1.90;;;;;;;;;;5094409;27;97367;-74
2022/06/06 22:27:45;;;;;;;3.63;2.20;;;;;;;;;;5088479;27;95951;-73
2022/06/06 22:30:12;;;;;;;3.92;2.33;;;;;;;;;;5077552;27;96695;-73
2022/06/06 22:32:38;;;;;;;4.30;2.30;;;;;;;;;;5074015;27;97328;-73
2022/06/06 22:35:05;;;;;;;3.25;2.20;;;;;;;;;;5088030;27;95321;-73
2022/06/06 22:37:32;;;;;;;3.90;2.40;;;;;;;;;;5092493;27;96818;-73
2022/06/06 22:39:58;;;;;;;5.40;2.55;;;;;;;;;;5097258;27;97351;-73
2022/06/06 22:42:25;;;;;;;4.18;2.70;;;;;;;;;;5089735;27;95770;-71
2022/06/06 22:44:52;;;;;;;5.38;2.60;;;;;;;;;;5073993;27;96479;-74
2022/06/06 22:47:19;;;;;;;8.65;2.65;;;;;;;;;;5086405;27;95487;-73
2022/06/06 22:49:46;;;;;;;8.88;3.15;;;;;;;;;;5093651;27;96728;-74
2022/06/06 22:52:12;;;;;;;4.10;2.53;;;;;;;;;;5095069;27;97394;-73
2022/06/06 22:54:39;;;;;;;5.03;2.92;;;;;;;;;;5091996;27;95447;-73
2022/06/06 22:57:05;;;;;;;4.80;2.88;;;;;;;;;;5084502;27;96684;-73
2022/06/06 22:59:31;;;;;;;4.82;2.65;;;;;;;;;;5093115;27;97352;-73
2022/06/06 23:01:58;;;;;;;5.18;3.05;;;;;;;;;;5096272;27;96552;-73
2022/06/06 23:04:24;;;;;;;5.20;2.85;;;;;;;;;;5087936;27;97191;-73
2022/06/06 23:06:51;;;;;;;5.90;3.40;;;;;;;;;;5092483;27;95568;-73
2022/06/06 23:09:17;;;;;;;4.75;2.58;;;;;;;;;;5094882;27;96725;-73
2022/06/06 23:11:43;;;;;;;4.80;2.90;;;;;;;;;;5091998;27;96061;-73
2022/06/06 23:14:10;;;;;;;5.30;2.92;;;;;;;;;;5078305;27;95418;-73
2022/06/06 23:16:38;;;;;;;5.15;2.80;;;;;;;;;;5076462;27;96696;-73
2022/06/06 23:19:05;;;;;;;5.28;2.92;;;;;;;;;;5092845;27;97426;-73
2022/06/06 23:21:32;;;;;;;6.35;3.63;;;;;;;;;;5074131;27;95824;-73
2022/06/06 23:23:59;;;;;;;5.20;3.17;;;;;;;;;;5084450;27;96788;-73
2022/06/06 23:26:25;;;;;;;5.15;3.22;;;;;;;;;;5089709;27;96647;-73
2022/06/06 23:28:53;;;;;;;6.55;3.80;;;;;;;;;;5091400;27;96446;-73
2022/06/06 23:31:19;;;;;;;5.63;3.60;;;;;;;;;;5091820;27;96544;-73
2022/06/06 23:33:46;;;;;;;5.40;3.22;;;;;;;;;;5094882;27;95096;-72
2022/06/06 23:36:16;;;;;;;5.90;3.70;;;;;;;;;;5094146;27;96671;-73
2022/06/06 23:38:45;;;;;;;6.82;4.05;;;;;;;;;;5094166;27;97274;-73
2022/06/06 23:41:12;;;;;;;6.28;3.97;;;;;;;;;;5106912;27;96287;-73
2022/06/06 23:43:43;;;;;;;8.45;4.78;;;;;;;;;;5080945;27;96482;-73
2022/06/06 23:48:59;;;;;;;6.30;3.58;;;;;;;;;;5072636;27;126308;-73
2022/06/06 23:51:27;;;;;;;6.57;4.35;;;;;;;;;;5092449;27;97311;-73
2022/06/06 23:53:55;;;;;;;6.75;4.18;;;;;;;;;;5094751;27;94967;-73
2022/06/06 23:56:27;;;;;;;7.30;4.25;;;;;;;;;;5093825;27;96503;-73
2022/06/06 23:58:54;;;;;;;6.45;4.40;;;;;;;;;;5090743;27;97402;-72
